Kostantis I — SY3315 — position and weather

sailwx.info

Track history (hours):
 
Tides and Currents Weather Stations Pressure Air Temp Water Temp Dewpoint Dewpoint Depression Visibility Wind Speed Wind Dir Waves Ship Positions

Kostantis I

Last reported at 2018-Jan-24 12:18 UTC. Time now 2018-Feb-21 23:08 UTC.
Position N 40°51' E 024°22'.
Warning: this ship's position is 28 days out of date.

Length 28 m; draft 2.5 m.

Type: Fishing. MMSI: 240220000.

Date/timePositionNaut miles runAvg speedWind from/ knotsBaromVisibWave heightAir tempDewpointWater temp
2018-Jan-24 12:18N 40°51' E 024°22'1 3.6
2018-Jan-24 11:59N 40°49' E 024°22'1 2.0
2018-Jan-24 11:31N 40°50' E 024°22'0 0.0
2018-Jan-23 15:12N 40°50' E 024°22'1 3.4
2018-Jan-23 15:00N 40°50' E 024°22'0 0.6
2018-Jan-23 14:27N 40°50' E 024°22'1 1.6
2018-Jan-23 14:00N 40°49' E 024°21'2 3.1
2018-Jan-23 13:26N 40°48' E 024°19'3 5.9
2018-Jan-23 13:00N 40°49' E 024°22'3 5.6
2018-Jan-23 12:30N 40°52' E 024°21'3 5.8
2018-Jan-23 12:00N 40°53' E 024°25'4 8.2
2018-Jan-23 11:30N 40°54' E 024°30'3 6.2
2018-Jan-23 11:00N 40°53' E 024°34'4 8.6
2018-Jan-23 10:31N 40°50' E 024°29'4 8.6
2018-Jan-23 10:00N 40°46' E 024°29'4 8.2
2018-Jan-23 09:30N 40°42' E 024°30'12 0.7
2018-Jan-22 17:42N 40°50' E 024°20'2 8.2
2018-Jan-22 17:30N 40°51' E 024°22'4 8.2
2018-Jan-22 17:01N 40°53' E 024°26'0 0.6
2018-Jan-22 16:30N 40°54' E 024°26'0 0.9
2018-Jan-22 15:59N 40°54' E 024°27'1 1.4
2018-Jan-22 15:24N 40°54' E 024°27'0 0.3
2018-Jan-22 14:58N 40°55' E 024°27'2 4.9
2018-Jan-22 14:30N 40°54' E 024°25'3 6.6
2018-Jan-22 14:00N 40°52' E 024°21'2 3.3
2018-Jan-22 13:26N 40°51' E 024°19'0 0.0
2018-Jan-22 12:53N 40°51' E 024°19'0 0.0
2018-Jan-22 12:26N 40°51' E 024°19'0 0.0
2018-Jan-22 11:42N 40°51' E 024°19'0 0.0
2018-Jan-22 10:33N 40°51' E 024°19'  
Track history (hours):
 
Tides and Currents Weather Stations Pressure Air Temp Water Temp Dewpoint Dewpoint Depression Visibility Wind Speed Wind Dir Waves Ship Positions

Kostantis I

Last reported at 2018-Jan-24 12:18 UTC. Time now 2018-Feb-21 23:08 UTC.
Position N 40°51' E 024°22'.
Warning: this ship's position is 28 days out of date.

Length 28 m; draft 2.5 m.

Type: Fishing. MMSI: 240220000.

Date/timePositionNaut miles runAvg speedWind from/ knotsBaromVisibWave heightAir tempDewpointWater temp
2018-Jan-24 12:18N 40°51' E 024°22'1 3.6
2018-Jan-24 11:59N 40°49' E 024°22'1 2.0
2018-Jan-24 11:31N 40°50' E 024°22'0 0.0
2018-Jan-23 15:12N 40°50' E 024°22'1 3.4
2018-Jan-23 15:00N 40°50' E 024°22'0 0.6
2018-Jan-23 14:27N 40°50' E 024°22'1 1.6
2018-Jan-23 14:00N 40°49' E 024°21'2 3.1
2018-Jan-23 13:26N 40°48' E 024°19'3 5.9
2018-Jan-23 13:00N 40°49' E 024°22'3 5.6
2018-Jan-23 12:30N 40°52' E 024°21'3 5.8
2018-Jan-23 12:00N 40°53' E 024°25'4 8.2
2018-Jan-23 11:30N 40°54' E 024°30'3 6.2
2018-Jan-23 11:00N 40°53' E 024°34'4 8.6
2018-Jan-23 10:31N 40°50' E 024°29'4 8.6
2018-Jan-23 10:00N 40°46' E 024°29'4 8.2
2018-Jan-23 09:30N 40°42' E 024°30'12 0.7
2018-Jan-22 17:42N 40°50' E 024°20'2 8.2
2018-Jan-22 17:30N 40°51' E 024°22'4 8.2
2018-Jan-22 17:01N 40°53' E 024°26'0 0.6
2018-Jan-22 16:30N 40°54' E 024°26'0 0.9
2018-Jan-22 15:59N 40°54' E 024°27'1 1.4
2018-Jan-22 15:24N 40°54' E 024°27'0 0.3
2018-Jan-22 14:58N 40°55' E 024°27'2 4.9
2018-Jan-22 14:30N 40°54' E 024°25'3 6.6
2018-Jan-22 14:00N 40°52' E 024°21'2 3.3
2018-Jan-22 13:26N 40°51' E 024°19'0 0.0
2018-Jan-22 12:53N 40°51' E 024°19'0 0.0
2018-Jan-22 12:26N 40°51' E 024°19'0 0.0
2018-Jan-22 11:42N 40°51' E 024°19'0 0.0
2018-Jan-22 10:33N 40°51' E 024°19'  

Dump ship's entire track history